createdAt,value
2018-03-11T00:02:00.147Z,10.72
2018-03-11T00:04:26.180Z,10.55
2018-03-11T00:06:52.356Z,10.40
2018-03-11T00:09:18.408Z,10.30
2018-03-11T00:11:44.515Z,10.22
2018-03-11T00:14:10.580Z,10.15
2018-03-11T00:16:36.618Z,10.05
2018-03-11T00:19:02.680Z,10.15
2018-03-11T00:21:28.819Z,10.49
2018-03-11T00:23:54.893Z,10.54
2018-03-11T00:26:20.957Z,10.62
2018-03-11T00:28:47.168Z,10.60
2018-03-11T00:31:13.208Z,10.57
2018-03-11T00:33:39.283Z,10.37
2018-03-11T00:36:05.398Z,10.28
2018-03-11T00:38:31.419Z,10.41
2018-03-11T00:40:57.499Z,10.50
2018-03-11T00:43:23.553Z,10.45
2018-03-11T00:45:49.673Z,10.44
2018-03-11T00:48:15.747Z,10.46
2018-03-11T00:50:41.777Z,10.43
2018-03-11T00:53:07.821Z,10.15
2018-03-11T00:55:33.877Z,9.99
2018-03-11T00:57:59.987Z,9.81
2018-03-11T01:00:26.094Z,9.65
2018-03-11T01:02:52.183Z,9.42
2018-03-11T01:05:18.187Z,9.26
2018-03-11T01:07:44.235Z,9.10
2018-03-11T01:10:10.290Z,9.09
2018-03-11T01:12:36.324Z,9.02
2018-03-11T01:15:02.462Z,9.23
2018-03-11T01:17:28.504Z,9.03
2018-03-11T01:19:54.520Z,8.91
2018-03-11T01:22:20.559Z,8.90
2018-03-11T01:24:46.653Z,8.68
2018-03-11T01:27:12.665Z,8.57
2018-03-11T01:29:38.756Z,8.58
2018-03-11T01:32:05.078Z,8.47
2018-03-11T01:34:31.243Z,8.42
2018-03-11T01:36:57.338Z,8.41
2018-03-11T01:39:23.373Z,8.34
2018-03-11T01:41:49.621Z,8.26
2018-03-11T01:44:15.670Z,8.19
2018-03-11T01:46:41.735Z,8.12
2018-03-11T01:49:07.836Z,8.05
2018-03-11T01:51:33.860Z,8.11
2018-03-11T01:53:59.918Z,8.16
2018-03-11T01:56:25.966Z,8.07
2018-03-11T01:58:52.050Z,7.97
2018-03-11T02:01:18.163Z,7.97
2018-03-11T02:03:44.245Z,7.92
2018-03-11T02:06:10.275Z,8.01
2018-03-11T02:08:36.348Z,8.22
2018-03-11T02:11:02.427Z,8.40
2018-03-11T02:13:28.631Z,8.57
2018-03-11T02:15:54.718Z,8.64
2018-03-11T02:18:20.753Z,8.79
2018-03-11T02:20:46.808Z,8.81
2018-03-11T02:23:12.856Z,8.84
2018-03-11T02:25:38.922Z,8.64
2018-03-11T02:28:04.970Z,8.66
2018-03-11T02:30:31.038Z,8.60
2018-03-11T02:32:57.116Z,8.53
2018-03-11T02:35:23.205Z,8.58
2018-03-11T02:37:49.352Z,8.52
2018-03-11T02:40:15.469Z,8.58
2018-03-11T02:42:42.571Z,8.64
2018-03-11T02:45:08.616Z,8.59
2018-03-11T02:47:35.243Z,8.65
2018-03-11T02:50:01.375Z,8.74
2018-03-11T02:52:27.409Z,8.66
2018-03-11T02:54:53.513Z,8.69
2018-03-11T02:57:19.576Z,8.63
2018-03-11T02:59:45.683Z,8.51
2018-03-11T03:02:11.745Z,8.46
2018-03-11T03:04:37.932Z,8.43
2018-03-11T03:07:03.998Z,8.36
2018-03-11T03:09:30.059Z,8.25
2018-03-11T03:11:56.116Z,8.18
2018-03-11T03:14:22.169Z,8.17
2018-03-11T03:16:48.367Z,8.10
2018-03-11T03:19:14.400Z,8.09
2018-03-11T03:21:40.443Z,8.01
2018-03-11T03:24:06.543Z,8.01
2018-03-11T03:26:32.604Z,7.87
2018-03-11T03:28:58.650Z,7.84
2018-03-11T03:31:24.667Z,7.83
2018-03-11T03:33:50.783Z,7.83
2018-03-11T03:36:16.832Z,7.80
2018-03-11T03:38:42.886Z,7.71
2018-03-11T03:41:08.910Z,7.61
2018-03-11T03:43:34.978Z,7.59
2018-03-11T03:46:00.990Z,7.53
2018-03-11T03:48:27.024Z,7.63
2018-03-11T03:50:53.103Z,7.56
2018-03-11T03:53:19.298Z,7.58
2018-03-11T03:55:45.332Z,7.64
2018-03-11T03:58:11.402Z,7.73
2018-03-11T04:00:37.496Z,7.74
2018-03-11T04:03:03.545Z,7.73
2018-03-11T04:05:29.614Z,7.81
2018-03-11T04:07:55.660Z,7.80
2018-03-11T04:10:21.674Z,7.81
2018-03-11T04:12:47.943Z,7.80
2018-03-11T04:15:14.052Z,7.74
2018-03-11T04:17:40.097Z,7.64
2018-03-11T04:20:06.157Z,7.56
2018-03-11T04:22:32.222Z,7.53
2018-03-11T04:24:58.335Z,7.49
2018-03-11T04:27:24.358Z,7.54
2018-03-11T04:29:50.387Z,7.59
2018-03-11T04:32:16.430Z,7.68
2018-03-11T04:34:42.485Z,7.62
2018-03-11T04:37:08.574Z,7.66
2018-03-11T04:39:34.609Z,7.68
2018-03-11T04:42:00.706Z,7.72
2018-03-11T04:44:26.732Z,7.71
2018-03-11T04:46:52.889Z,7.68
2018-03-11T04:49:18.930Z,7.72
2018-03-11T04:51:44.962Z,7.69
2018-03-11T04:54:11.198Z,7.58
2018-03-11T04:56:37.221Z,7.57
2018-03-11T04:59:03.318Z,7.51
2018-03-11T05:01:29.563Z,7.46
2018-03-11T05:03:55.802Z,7.48
2018-03-11T05:06:21.852Z,7.49
2018-03-11T05:08:47.897Z,7.49
2018-03-11T05:11:13.960Z,7.42
2018-03-11T05:13:40.053Z,7.37
2018-03-11T05:16:06.086Z,7.38
2018-03-11T05:18:32.112Z,7.39
2018-03-11T05:20:58.237Z,7.50
2018-03-11T05:23:24.301Z,7.61
2018-03-11T05:25:50.421Z,7.69
2018-03-11T05:28:16.504Z,7.79
2018-03-11T05:30:42.582Z,7.80
2018-03-11T05:33:08.633Z,7.85
2018-03-11T05:35:34.755Z,7.87
2018-03-11T05:38:00.815Z,7.94
2018-03-11T05:40:26.882Z,7.91
2018-03-11T05:42:54.001Z,7.90
2018-03-11T05:45:20.146Z,7.92
2018-03-11T05:47:46.186Z,7.94
2018-03-11T05:50:12.243Z,7.89
2018-03-11T05:52:38.295Z,7.79
2018-03-11T05:55:04.346Z,7.71
2018-03-11T05:57:30.451Z,7.60
2018-03-11T05:59:56.555Z,7.48
2018-03-11T06:02:22.610Z,7.47
2018-03-11T06:04:48.720Z,7.46
2018-03-11T06:07:14.779Z,7.43
2018-03-11T06:09:40.821Z,7.56
2018-03-11T06:12:06.878Z,7.61
2018-03-11T06:14:32.970Z,7.71
2018-03-11T06:16:58.981Z,7.88
2018-03-11T06:19:25.078Z,8.09
2018-03-11T06:21:51.169Z,8.05
2018-03-11T06:24:17.234Z,8.09
2018-03-11T06:26:43.318Z,8.14
2018-03-11T06:29:09.705Z,8.17
2018-03-11T06:31:35.758Z,8.11
2018-03-11T06:34:01.979Z,8.14
2018-03-11T06:36:28.036Z,8.14
2018-03-11T06:38:54.101Z,8.24
2018-03-11T06:41:20.402Z,8.27
2018-03-11T06:43:46.463Z,8.32
2018-03-11T06:46:12.536Z,8.39
2018-03-11T06:48:38.608Z,8.47
2018-03-11T06:51:04.698Z,8.51
2018-03-11T06:53:30.767Z,8.64
2018-03-11T06:55:57.078Z,8.64
2018-03-11T06:58:23.140Z,8.71
2018-03-11T07:00:49.448Z,8.87
2018-03-11T07:03:15.485Z,8.88
2018-03-11T07:05:41.563Z,8.96
2018-03-11T07:08:07.618Z,9.01
2018-03-11T07:10:33.722Z,9.11
2018-03-11T07:12:59.823Z,9.16
2018-03-11T07:15:25.875Z,9.39
2018-03-11T07:17:51.947Z,9.63
2018-03-11T07:20:18.014Z,9.64
2018-03-11T07:22:44.067Z,9.71
2018-03-11T07:25:10.170Z,9.71
2018-03-11T07:27:36.224Z,9.75
2018-03-11T07:30:02.335Z,9.81
2018-03-11T07:32:28.370Z,9.92
2018-03-11T07:34:54.443Z,10.07
2018-03-11T07:37:20.690Z,10.15
2018-03-11T07:39:46.802Z,10.22
2018-03-11T07:42:12.879Z,10.19
2018-03-11T07:44:39.008Z,10.23
2018-03-11T07:47:05.046Z,10.32
2018-03-11T07:49:31.064Z,10.57
2018-03-11T07:51:57.256Z,10.80
2018-03-11T07:54:23.467Z,10.93
2018-03-11T07:56:49.574Z,11.02
2018-03-11T07:59:15.762Z,11.07
2018-03-11T08:01:41.865Z,11.11
2018-03-11T08:04:07.904Z,11.21
2018-03-11T08:06:33.992Z,11.33
2018-03-11T08:09:00.047Z,11.33
2018-03-11T08:11:26.149Z,11.47
2018-03-11T08:13:52.436Z,11.54
2018-03-11T08:16:18.465Z,11.53
2018-03-11T08:18:44.726Z,11.56
2018-03-11T08:21:10.765Z,11.60
2018-03-11T08:23:36.870Z,11.58
2018-03-11T08:26:02.944Z,11.47
2018-03-11T08:28:29.152Z,11.55
2018-03-11T08:30:55.207Z,11.69
2018-03-11T08:33:21.424Z,11.81
2018-03-11T08:35:47.509Z,11.88
2018-03-11T08:38:13.646Z,11.87
2018-03-11T08:40:39.779Z,11.95
2018-03-11T08:43:05.872Z,11.87
2018-03-11T08:45:31.922Z,11.93
2018-03-11T08:47:58.083Z,11.89
2018-03-11T08:50:24.134Z,11.92
2018-03-11T08:52:50.249Z,11.96
2018-03-11T08:55:16.331Z,12.02
2018-03-11T08:57:42.367Z,12.14
2018-03-11T09:00:08.494Z,12.26
2018-03-11T09:02:34.564Z,12.44
2018-03-11T09:05:00.839Z,12.50
2018-03-11T09:07:26.884Z,12.45
2018-03-11T09:09:52.969Z,12.54
2018-03-11T09:12:19.076Z,12.69
2018-03-11T09:14:45.281Z,12.85
2018-03-11T09:17:11.389Z,12.82
2018-03-11T09:19:37.753Z,12.92
2018-03-11T09:22:03.844Z,12.93
2018-03-11T09:24:29.894Z,13.01
2018-03-11T09:26:56.083Z,13.12
2018-03-11T09:29:22.148Z,13.17
2018-03-11T09:31:48.248Z,13.25
2018-03-11T09:34:14.304Z,13.24
2018-03-11T09:36:40.375Z,13.41
2018-03-11T09:39:06.483Z,13.43
2018-03-11T09:41:33.053Z,13.47
2018-03-11T09:43:59.123Z,13.42
2018-03-11T09:46:25.201Z,13.58
2018-03-11T09:48:51.247Z,13.57
2018-03-11T09:51:17.303Z,13.60
2018-03-11T09:53:43.347Z,13.60
2018-03-11T09:56:09.651Z,13.55
2018-03-11T09:58:35.731Z,13.59
2018-03-11T10:01:01.810Z,13.75
2018-03-11T10:03:27.851Z,13.92
2018-03-11T10:05:53.929Z,14.02
2018-03-11T10:08:19.986Z,14.07
2018-03-11T10:10:46.073Z,13.92
2018-03-11T10:13:12.135Z,14.03
2018-03-11T10:15:38.324Z,14.11
2018-03-11T10:18:04.405Z,14.31
2018-03-11T10:20:30.441Z,14.40
2018-03-11T10:22:56.574Z,14.54
2018-03-11T10:25:22.676Z,14.55
2018-03-11T10:27:48.741Z,14.49
2018-03-11T10:30:14.768Z,14.50
2018-03-11T10:32:40.849Z,14.56
2018-03-11T10:35:06.935Z,14.61
2018-03-11T10:37:33.055Z,14.78
2018-03-11T10:39:59.166Z,14.90
2018-03-11T10:42:25.234Z,14.88
2018-03-11T10:44:51.318Z,14.77
2018-03-11T10:47:17.570Z,14.75
2018-03-11T10:49:43.625Z,14.85
2018-03-11T10:52:09.837Z,14.95
2018-03-11T10:54:35.975Z,14.99
2018-03-11T10:57:02.079Z,14.99
2018-03-11T10:59:28.177Z,15.04
2018-03-11T11:05:01.341Z,15.21
2018-03-11T11:07:27.557Z,15.37
2018-03-11T11:09:53.593Z,15.50
2018-03-11T11:12:19.683Z,15.75
2018-03-11T11:14:45.730Z,15.85
2018-03-11T11:17:11.935Z,16.01
2018-03-11T11:19:37.978Z,15.70
2018-03-11T11:22:04.088Z,15.55
2018-03-11T11:24:30.158Z,15.41
2018-03-11T11:26:56.207Z,15.39
2018-03-11T11:29:22.357Z,15.35
2018-03-11T11:31:48.424Z,15.46
2018-03-11T11:34:14.542Z,15.44
2018-03-11T11:36:40.699Z,15.43
2018-03-11T11:39:06.796Z,15.47
2018-03-11T11:41:32.875Z,15.57
2018-03-11T11:43:58.971Z,15.53
2018-03-11T11:46:25.280Z,15.43
2018-03-11T11:48:51.396Z,15.46
2018-03-11T11:51:17.456Z,15.44
2018-03-11T11:53:43.477Z,15.31
2018-03-11T11:56:09.581Z,15.29
2018-03-11T11:58:35.651Z,15.29
2018-03-11T12:01:01.740Z,15.21
2018-03-11T12:03:27.894Z,15.19
2018-03-11T12:05:54.132Z,15.08
2018-03-11T12:08:20.385Z,15.04
2018-03-11T12:10:46.477Z,15.03
2018-03-11T12:13:12.606Z,15.04
2018-03-11T12:15:38.671Z,15.06
2018-03-11T12:18:04.716Z,15.13
2018-03-11T12:20:30.838Z,15.23
2018-03-11T12:22:56.878Z,15.05
2018-03-11T12:25:22.973Z,14.97
2018-03-11T12:27:49.002Z,14.96
2018-03-11T12:30:15.280Z,14.94
2018-03-11T12:32:41.307Z,14.87
2018-03-11T12:35:07.377Z,14.94
2018-03-11T12:37:33.549Z,14.90
2018-03-11T12:39:59.749Z,14.95
2018-03-11T12:42:25.851Z,14.84
2018-03-11T12:44:51.908Z,14.81
2018-03-11T12:47:17.985Z,14.77
2018-03-11T12:49:44.025Z,14.74
2018-03-11T12:52:10.219Z,14.78
2018-03-11T12:54:36.375Z,14.82
2018-03-11T12:57:02.497Z,14.86
2018-03-11T12:59:28.655Z,14.89
2018-03-11T13:01:54.870Z,14.97
2018-03-11T13:04:20.960Z,15.12
2018-03-11T13:06:47.295Z,15.20
2018-03-11T13:09:13.469Z,15.44
2018-03-11T13:11:39.712Z,15.67
2018-03-11T13:14:05.854Z,15.69
2018-03-11T13:16:32.619Z,15.72
2018-03-11T13:18:58.665Z,15.67
2018-03-11T13:21:24.834Z,15.70
2018-03-11T13:23:50.931Z,15.73
2018-03-11T13:26:16.984Z,15.65
2018-03-11T13:28:48.140Z,15.62
2018-03-11T13:31:14.263Z,15.72
2018-03-11T13:33:52.597Z,15.68
2018-03-11T13:36:19.445Z,15.68
2018-03-11T13:38:57.746Z,15.64
2018-03-11T13:41:23.813Z,15.59
2018-03-11T13:43:49.902Z,15.67
2018-03-11T13:46:28.189Z,15.59
2018-03-11T13:48:54.226Z,15.63
2018-03-11T13:51:32.622Z,15.65
2018-03-11T13:53:58.695Z,15.55
2018-03-11T13:56:24.764Z,15.45
2018-03-11T13:58:50.832Z,15.38
2018-03-11T14:01:16.957Z,15.46
2018-03-11T14:03:43.128Z,15.45
2018-03-11T14:06:09.310Z,15.48
2018-03-11T14:08:35.686Z,15.57
2018-03-11T14:11:01.778Z,15.53
2018-03-11T14:13:27.818Z,15.47
2018-03-11T14:15:53.885Z,15.39
2018-03-11T14:18:19.960Z,15.35
2018-03-11T14:20:46.086Z,15.28
2018-03-11T14:23:12.180Z,15.18
2018-03-11T14:25:38.720Z,15.13
2018-03-11T14:28:04.893Z,15.17
2018-03-11T14:30:30.943Z,15.08
2018-03-11T14:32:57.085Z,15.02
2018-03-11T14:35:23.212Z,14.95
2018-03-11T14:37:49.294Z,14.84
2018-03-11T14:40:15.620Z,14.78
2018-03-11T14:42:41.709Z,14.77
2018-03-11T14:45:07.854Z,14.83
2018-03-11T14:47:33.935Z,14.96
2018-03-11T14:49:59.979Z,14.84
2018-03-11T14:52:26.107Z,14.84
2018-03-11T14:54:52.261Z,14.85
2018-03-11T14:57:18.370Z,14.93
2018-03-11T14:59:44.429Z,14.91
2018-03-11T15:02:10.523Z,15.02
2018-03-11T15:04:36.731Z,15.04
2018-03-11T15:07:02.790Z,15.01
2018-03-11T15:09:28.836Z,14.99
2018-03-11T15:11:54.870Z,15.08
2018-03-11T15:14:21.203Z,15.19
2018-03-11T15:16:47.253Z,15.31
2018-03-11T15:19:13.388Z,15.29
2018-03-11T15:21:39.495Z,15.26
2018-03-11T15:24:05.831Z,15.25
2018-03-11T15:26:31.921Z,15.14
2018-03-11T15:28:58.381Z,15.06
2018-03-11T15:31:24.453Z,14.93
2018-03-11T15:33:50.559Z,14.86
2018-03-11T15:36:16.769Z,14.79
2018-03-11T15:38:42.918Z,14.78
2018-03-11T15:41:09.021Z,14.77
2018-03-11T15:43:35.128Z,14.68
2018-03-11T15:46:01.264Z,14.63
2018-03-11T15:48:27.451Z,14.57
2018-03-11T15:50:53.537Z,14.56
2018-03-11T15:53:19.691Z,14.59
2018-03-11T15:55:45.784Z,14.58
2018-03-11T15:58:11.911Z,14.55
2018-03-11T16:00:38.049Z,14.47
2018-03-11T16:03:04.227Z,14.42
2018-03-11T16:05:30.301Z,14.39
2018-03-11T16:07:56.574Z,14.35
2018-03-11T16:10:22.790Z,14.43
2018-03-11T16:12:48.892Z,14.35
2018-03-11T16:15:14.992Z,14.27
2018-03-11T16:17:41.066Z,14.28
2018-03-11T16:20:07.196Z,14.22
2018-03-11T16:22:33.251Z,14.13
2018-03-11T16:24:59.343Z,14.05
2018-03-11T16:27:25.481Z,13.95
2018-03-11T16:29:51.608Z,13.86
2018-03-11T16:32:17.740Z,13.85
2018-03-11T16:34:44.083Z,13.72
2018-03-11T16:37:10.191Z,13.60
2018-03-11T16:39:36.256Z,13.57
2018-03-11T16:42:02.487Z,13.52
2018-03-11T16:44:28.620Z,13.60
2018-03-11T16:46:55.072Z,13.57
2018-03-11T16:49:21.186Z,13.48
2018-03-11T16:51:47.291Z,13.39
2018-03-11T16:54:13.448Z,13.31
2018-03-11T16:56:39.574Z,13.25
2018-03-11T16:59:05.717Z,13.19
2018-03-11T17:01:32.834Z,13.10
2018-03-11T17:03:59.697Z,13.06
2018-03-11T17:06:25.836Z,13.02
2018-03-11T17:08:51.873Z,13.06
2018-03-11T17:11:17.968Z,12.98
2018-03-11T17:13:44.295Z,12.89
2018-03-11T17:16:10.398Z,12.80
2018-03-11T17:18:36.646Z,12.79
2018-03-11T17:21:02.713Z,12.70
2018-03-11T17:23:28.901Z,12.70
2018-03-11T17:25:55.044Z,12.61
2018-03-11T17:28:21.125Z,12.61
2018-03-11T17:30:47.288Z,12.62
2018-03-11T17:33:13.517Z,12.51
2018-03-11T17:35:39.613Z,12.41
2018-03-11T17:38:06.559Z,12.32
2018-03-11T17:40:32.730Z,12.28
2018-03-11T17:42:59.293Z,12.18
2018-03-11T17:45:25.660Z,12.14
2018-03-11T17:47:51.785Z,12.17
2018-03-11T17:50:17.854Z,12.06
2018-03-11T17:52:44.050Z,12.07
2018-03-11T17:55:10.086Z,12.02
2018-03-11T17:57:36.260Z,11.99
2018-03-11T18:00:02.379Z,11.97
2018-03-11T18:02:28.583Z,11.96
2018-03-11T18:04:54.668Z,11.92
2018-03-11T18:07:35.771Z,11.87
2018-03-11T18:10:01.858Z,11.94
2018-03-11T18:12:27.999Z,11.84
2018-03-11T18:14:54.154Z,11.82
2018-03-11T18:17:20.290Z,11.81
2018-03-11T18:19:46.457Z,11.81
2018-03-11T18:22:12.497Z,11.79
2018-03-11T18:24:39.744Z,11.77
2018-03-11T18:27:06.044Z,11.79
2018-03-11T18:29:32.218Z,11.83
2018-03-11T18:31:59.296Z,11.85
2018-03-11T18:34:25.473Z,11.81
2018-03-11T18:36:51.595Z,11.84
2018-03-11T18:39:17.670Z,11.80
2018-03-11T18:41:43.890Z,11.83
2018-03-11T18:44:10.977Z,11.83
2018-03-11T18:46:37.997Z,11.86
2018-03-11T18:49:04.121Z,11.87
2018-03-11T18:51:30.248Z,11.94
2018-03-11T18:53:56.326Z,11.93
2018-03-11T18:56:22.528Z,11.87
2018-03-11T18:58:48.644Z,11.93
2018-03-11T19:01:14.810Z,11.91
2018-03-11T19:03:40.956Z,11.88
2018-03-11T19:06:07.029Z,11.98
2018-03-11T19:08:34.836Z,11.86
2018-03-11T19:11:00.950Z,11.87
2018-03-11T19:13:27.302Z,11.83
2018-03-11T19:15:53.459Z,11.84
2018-03-11T19:18:19.555Z,11.84
2018-03-11T19:20:45.733Z,11.90
2018-03-11T19:23:12.894Z,11.89
2018-03-11T19:25:39.039Z,12.03
2018-03-11T19:28:05.763Z,12.06
2018-03-11T19:30:31.868Z,11.96
2018-03-11T19:32:58.874Z,11.93
2018-03-11T19:35:24.979Z,11.92
2018-03-11T19:37:52.128Z,11.82
2018-03-11T19:40:18.325Z,11.80
2018-03-11T19:42:44.613Z,11.88
2018-03-11T19:45:10.831Z,11.92
2018-03-11T19:47:36.957Z,12.02
2018-03-11T19:50:04.591Z,12.12
2018-03-11T19:52:30.663Z,12.22
2018-03-11T19:54:57.703Z,12.19
2018-03-11T19:57:24.004Z,12.20
2018-03-11T19:59:51.174Z,12.21
2018-03-11T20:02:17.681Z,12.25
2018-03-11T20:04:44.465Z,12.28
2018-03-11T20:07:10.723Z,12.35
2018-03-11T20:09:36.926Z,12.39
2018-03-11T20:12:04.012Z,12.48
2018-03-11T20:14:30.198Z,12.47
2018-03-11T20:16:56.481Z,12.36
2018-03-11T20:19:22.906Z,12.33
2018-03-11T20:21:49.182Z,12.31
2018-03-11T20:24:15.322Z,12.30
2018-03-11T20:26:41.571Z,12.33
2018-03-11T20:29:07.748Z,12.43
2018-03-11T20:31:33.853Z,12.55
2018-03-11T20:34:00.214Z,12.63
2018-03-11T20:36:26.348Z,12.76
2018-03-11T20:38:52.423Z,12.78
2018-03-11T20:41:18.923Z,12.78
2018-03-11T20:43:45.054Z,12.58
2018-03-11T20:46:11.179Z,12.43
2018-03-11T20:48:38.123Z,12.33
2018-03-11T20:51:04.349Z,12.13
2018-03-11T20:53:30.575Z,11.99
2018-03-11T20:55:56.807Z,11.97
2018-03-11T20:58:22.964Z,11.83
2018-03-11T21:00:49.130Z,11.74
2018-03-11T21:03:16.319Z,11.64
2018-03-11T21:05:42.668Z,11.56
2018-03-11T21:08:08.802Z,11.46
2018-03-11T21:10:34.894Z,11.42
2018-03-11T21:13:01.837Z,11.36
2018-03-11T21:15:27.982Z,11.30
2018-03-11T21:17:54.091Z,11.30
2018-03-11T21:20:20.156Z,11.23
2018-03-11T21:22:46.231Z,11.23
2018-03-11T21:25:12.441Z,11.22
2018-03-11T21:27:38.739Z,11.26
2018-03-11T21:30:05.448Z,11.20
2018-03-11T21:32:31.654Z,11.14
2018-03-11T21:34:58.000Z,11.02
2018-03-11T21:37:24.152Z,10.99
2018-03-11T21:39:50.303Z,10.96
2018-03-11T21:42:16.407Z,10.96
2018-03-11T21:44:42.524Z,10.90
2018-03-11T21:47:08.859Z,10.87
2018-03-11T21:49:34.961Z,10.90
2018-03-11T21:52:01.049Z,10.80
2018-03-11T21:54:27.161Z,10.75
2018-03-11T21:56:53.269Z,10.70
2018-03-11T21:59:19.354Z,10.66
2018-03-11T22:01:45.427Z,10.62
2018-03-11T22:04:11.602Z,10.60
2018-03-11T22:06:37.657Z,10.64
2018-03-11T22:09:03.739Z,10.54
2018-03-11T22:11:29.835Z,10.46
2018-03-11T22:13:55.878Z,10.35
2018-03-11T22:16:21.935Z,10.33
2018-03-11T22:18:48.014Z,10.21
2018-03-11T22:21:14.106Z,10.13
2018-03-11T22:23:40.269Z,10.06
2018-03-11T22:26:06.534Z,10.00
2018-03-11T22:28:32.650Z,9.84
2018-03-11T22:30:59.485Z,9.75
2018-03-11T22:33:25.578Z,9.69
2018-03-11T22:35:51.832Z,9.67
2018-03-11T22:38:17.904Z,9.63
2018-03-11T22:40:43.961Z,9.53
2018-03-11T22:43:10.198Z,9.42
2018-03-11T22:45:36.363Z,9.40
2018-03-11T22:48:02.442Z,9.34
2018-03-11T22:50:28.500Z,9.30
2018-03-11T22:52:54.554Z,9.23
2018-03-11T22:55:20.685Z,9.18
2018-03-11T22:57:46.735Z,9.14
2018-03-11T23:00:12.844Z,9.12
2018-03-11T23:02:38.929Z,9.12
2018-03-11T23:05:05.011Z,9.16
2018-03-11T23:07:31.054Z,9.12
2018-03-11T23:09:57.296Z,9.11
2018-03-11T23:12:23.596Z,9.13
2018-03-11T23:14:49.646Z,9.14
2018-03-11T23:17:15.686Z,9.18
2018-03-11T23:19:41.769Z,9.18
2018-03-11T23:22:07.899Z,9.15
2018-03-11T23:24:33.970Z,9.15
2018-03-11T23:27:00.070Z,9.14
2018-03-11T23:29:26.137Z,9.18
2018-03-11T23:31:52.234Z,9.13
2018-03-11T23:34:18.274Z,9.18
2018-03-11T23:36:44.462Z,9.13
2018-03-11T23:39:10.518Z,9.12
2018-03-11T23:41:36.584Z,9.08
2018-03-11T23:44:02.768Z,9.05
2018-03-11T23:46:29.510Z,9.07
2018-03-11T23:48:55.633Z,9.07
2018-03-11T23:51:21.731Z,9.10
2018-03-11T23:53:47.739Z,9.15
2018-03-11T23:56:13.980Z,9.11
2018-03-11T23:58:40.060Z,9.09
